createdAt,value
2019-02-11T00:05:01.862Z,87.06
2019-02-11T00:10:08.249Z,86.20
2019-02-11T00:15:13.539Z,86.64
2019-02-11T00:20:19.171Z,87.16
2019-02-11T00:25:24.258Z,85.79
2019-02-11T00:30:29.352Z,86.33
2019-02-11T00:35:34.931Z,85.47
2019-02-11T00:40:39.933Z,85.66
2019-02-11T00:45:45.123Z,86.12
2019-02-11T00:50:50.618Z,86.02
2019-02-11T00:55:56.442Z,87.45
2019-02-11T01:01:02.507Z,87.26
2019-02-11T01:06:07.736Z,89.46
2019-02-11T01:11:13.036Z,90.76
2019-02-11T01:16:18.195Z,91.08
2019-02-11T01:21:24.367Z,91.71
2019-02-11T01:26:29.445Z,92.17
2019-02-11T01:31:34.662Z,91.51
2019-02-11T01:36:39.784Z,92.12
2019-02-11T01:41:46.332Z,92.45
2019-02-11T01:46:51.786Z,92.20
2019-02-11T01:51:57.851Z,92.49
2019-02-11T01:57:02.933Z,92.68
2019-02-11T02:02:07.931Z,92.90
2019-02-11T02:07:13.301Z,92.31
2019-02-11T02:12:18.549Z,92.26
2019-02-11T02:17:24.862Z,91.46
2019-02-11T02:22:29.943Z,92.28
2019-02-11T02:27:34.949Z,92.85
2019-02-11T02:32:40.051Z,92.19
2019-02-11T02:37:45.159Z,91.61
2019-02-11T02:42:50.966Z,91.93
2019-02-11T02:47:56.051Z,92.51
2019-02-11T02:53:01.441Z,92.21
2019-02-11T02:58:06.515Z,93.00
2019-02-11T03:03:11.609Z,92.28
2019-02-11T03:08:17.664Z,91.13
2019-02-11T03:13:22.766Z,91.31
2019-02-11T03:18:27.845Z,90.33
2019-02-11T03:23:34.285Z,89.17
2019-02-11T03:28:39.735Z,89.23
2019-02-11T03:33:46.100Z,88.39
2019-02-11T03:38:51.517Z,88.17
2019-02-11T03:43:57.596Z,87.93
2019-02-11T03:49:03.131Z,88.85
2019-02-11T03:54:08.204Z,88.76
2019-02-11T03:59:13.438Z,88.55
2019-02-11T04:04:18.593Z,88.22
2019-02-11T04:09:23.828Z,88.57
2019-02-11T04:14:30.113Z,88.23
2019-02-11T04:19:35.632Z,87.95
2019-02-11T04:24:41.151Z,88.83
2019-02-11T04:29:46.635Z,88.17
2019-02-11T04:34:51.970Z,88.50
2019-02-11T04:39:57.862Z,87.80
2019-02-11T04:45:04.077Z,88.21
2019-02-11T04:50:09.732Z,87.57
2019-02-11T04:55:14.898Z,87.88
2019-02-11T05:00:20.890Z,88.26
2019-02-11T05:05:26.066Z,89.03
2019-02-11T05:10:31.700Z,88.46
2019-02-11T05:15:38.170Z,87.67
2019-02-11T05:20:44.289Z,89.41
2019-02-11T05:25:49.455Z,88.68
2019-02-11T05:30:55.568Z,88.80
2019-02-11T05:36:01.013Z,89.43
2019-02-11T05:41:07.605Z,89.46
2019-02-11T05:46:14.685Z,89.79
2019-02-11T05:51:20.714Z,88.89
2019-02-11T05:56:26.390Z,88.78
2019-02-11T06:01:31.668Z,89.72
2019-02-11T06:06:38.418Z,89.17
2019-02-11T06:11:45.634Z,88.95
2019-02-11T06:16:50.748Z,87.55
2019-02-11T06:21:56.590Z,87.13
2019-02-11T06:27:01.751Z,86.88
2019-02-11T06:32:07.183Z,86.67
2019-02-11T06:37:12.401Z,87.49
2019-02-11T06:42:17.940Z,87.37
2019-02-11T06:47:23.088Z,88.20
2019-02-11T06:52:28.264Z,87.66
2019-02-11T06:57:33.437Z,88.72
2019-02-11T07:02:39.032Z,89.48
2019-02-11T07:07:44.604Z,89.37
2019-02-11T07:12:50.957Z,89.19
2019-02-11T07:17:56.042Z,89.57
2019-02-11T07:23:01.280Z,88.63
2019-02-11T07:28:06.556Z,87.67
2019-02-11T07:33:12.459Z,88.45
2019-02-11T07:38:17.661Z,88.17
2019-02-11T07:43:26.770Z,89.23
2019-02-11T07:48:32.380Z,87.78
2019-02-11T07:53:37.556Z,87.55
2019-02-11T07:58:42.728Z,86.22
2019-02-11T08:03:48.171Z,86.15
2019-02-11T08:08:53.339Z,85.92
2019-02-11T08:13:59.505Z,86.10
2019-02-11T08:19:05.108Z,84.83
2019-02-11T08:24:10.209Z,84.46
2019-02-11T08:29:15.364Z,83.60
2019-02-11T08:34:20.863Z,82.12
2019-02-11T08:39:26.025Z,82.36
2019-02-11T08:44:33.619Z,80.19
2019-02-11T08:49:38.931Z,80.07
2019-02-11T08:54:45.322Z,80.88
2019-02-11T08:59:50.398Z,80.95
2019-02-11T09:04:55.938Z,80.34
2019-02-11T09:10:01.101Z,77.98
2019-02-11T09:15:08.301Z,78.50
2019-02-11T09:20:13.667Z,79.34
2019-02-11T09:25:19.108Z,77.66
2019-02-11T09:30:24.968Z,76.91
2019-02-11T09:35:30.165Z,77.35
2019-02-11T09:40:35.647Z,76.45
2019-02-11T09:45:41.298Z,75.50
2019-02-11T09:50:51.658Z,75.38
2019-02-11T09:55:56.820Z,76.95
2019-02-11T10:01:02.002Z,76.15
2019-02-11T10:06:07.471Z,77.19
2019-02-11T10:11:12.638Z,76.44
2019-02-11T10:16:18.607Z,77.47
2019-02-11T10:21:23.903Z,76.82
2019-02-11T10:26:29.070Z,76.26
2019-02-11T10:31:34.268Z,75.01
2019-02-11T10:36:39.712Z,74.44
2019-02-11T10:41:46.444Z,73.89
2019-02-11T10:46:51.716Z,75.86
2019-02-11T10:51:56.870Z,74.91
2019-02-11T10:57:02.895Z,74.32
2019-02-11T11:02:08.078Z,73.25
2019-02-11T11:07:13.258Z,75.24
2019-02-11T11:12:18.930Z,74.44
2019-02-11T11:17:25.202Z,74.64
2019-02-11T11:22:30.687Z,76.03
2019-02-11T11:27:36.261Z,76.33
2019-02-11T11:32:42.686Z,77.18
2019-02-11T11:37:48.101Z,78.15
2019-02-11T11:42:53.908Z,78.49
2019-02-11T11:47:59.094Z,77.70
2019-02-11T11:53:04.514Z,78.49
2019-02-11T11:58:09.988Z,79.02
2019-02-11T12:03:16.251Z,77.74
2019-02-11T12:08:21.841Z,81.02
2019-02-11T12:13:27.035Z,83.34
2019-02-11T12:18:32.238Z,82.63
2019-02-11T12:23:37.420Z,81.57
2019-02-11T12:28:43.579Z,80.68
2019-02-11T12:33:49.193Z,80.48
2019-02-11T12:38:54.408Z,81.53
2019-02-11T12:43:59.922Z,77.42
2019-02-11T12:49:05.136Z,76.48
2019-02-11T12:54:10.563Z,74.58
2019-02-11T12:59:15.764Z,74.46
2019-02-11T13:04:20.945Z,73.52
2019-02-11T13:09:26.145Z,73.80
2019-02-11T13:14:31.339Z,71.98
2019-02-11T13:19:36.879Z,68.80
2019-02-11T13:24:42.076Z,69.32
2019-02-11T13:29:48.205Z,71.20
2019-02-11T13:34:53.870Z,71.59
2019-02-11T13:39:59.368Z,70.94
2019-02-11T13:45:07.221Z,70.78
2019-02-11T13:50:15.058Z,71.03
2019-02-11T13:55:20.266Z,71.57
2019-02-11T14:00:31.527Z,70.90
2019-02-11T14:05:37.668Z,72.13
2019-02-11T14:10:42.942Z,68.59
2019-02-11T14:15:48.177Z,70.20
2019-02-11T14:20:53.672Z,72.13
2019-02-11T14:25:58.868Z,74.92
2019-02-11T14:31:04.505Z,82.80
2019-02-11T14:36:09.779Z,82.75
2019-02-11T14:41:15.833Z,85.70
2019-02-11T14:46:21.165Z,87.06
2019-02-11T14:51:27.078Z,86.74
2019-02-11T14:56:33.704Z,87.61
2019-02-11T15:01:39.170Z,85.78
2019-02-11T15:06:44.359Z,84.41
2019-02-11T15:11:50.496Z,84.32
2019-02-11T15:16:56.071Z,83.51
2019-02-11T15:22:01.584Z,83.57
2019-02-11T15:27:07.155Z,81.83
2019-02-11T15:32:12.472Z,79.94
2019-02-11T15:37:17.675Z,80.56
2019-02-11T15:42:22.963Z,78.05
2019-02-11T15:47:29.331Z,79.20
2019-02-11T15:52:34.803Z,80.09
2019-02-11T15:57:40.863Z,80.03
2019-02-11T16:02:46.163Z,80.95
2019-02-11T16:07:51.727Z,80.68
2019-02-11T16:12:57.023Z,81.05
2019-02-11T16:18:02.210Z,82.08
2019-02-11T16:23:08.472Z,82.22
2019-02-11T16:28:13.655Z,81.70
2019-02-11T16:33:19.266Z,81.66
2019-02-11T16:38:24.483Z,82.71
2019-02-11T16:43:30.034Z,82.70
2019-02-11T16:48:35.582Z,82.55
2019-02-11T16:53:40.760Z,82.14
2019-02-11T16:58:45.958Z,83.36
2019-02-11T17:03:51.150Z,84.86
2019-02-11T17:08:56.334Z,85.79
2019-02-11T17:14:02.532Z,86.46
2019-02-11T17:19:09.390Z,86.56
2019-02-11T17:24:14.619Z,87.10
2019-02-11T17:29:19.815Z,87.46
2019-02-11T17:34:25.378Z,87.61
2019-02-11T17:39:30.562Z,87.16
2019-02-11T17:44:36.425Z,87.30
2019-02-11T17:49:41.985Z,87.18
2019-02-11T17:54:47.171Z,87.43
2019-02-11T17:59:52.483Z,87.43
2019-02-11T18:04:58.529Z,87.53
2019-02-11T18:10:03.761Z,87.66
2019-02-11T18:15:09.456Z,87.62
2019-02-11T18:20:14.957Z,87.04
2019-02-11T18:25:21.111Z,86.64
2019-02-11T18:30:27.565Z,86.18
2019-02-11T18:35:32.811Z,85.16
2019-02-11T18:40:38.004Z,82.31
2019-02-11T18:45:43.503Z,80.50
2019-02-11T18:50:48.695Z,80.50
2019-02-11T18:55:53.886Z,78.79
2019-02-11T19:00:59.070Z,77.95
2019-02-11T19:06:04.246Z,77.80
2019-02-11T19:11:09.914Z,76.43
2019-02-11T19:16:15.377Z,74.72
2019-02-11T19:21:21.547Z,75.66
2019-02-11T19:26:28.407Z,76.57
2019-02-11T19:31:33.640Z,76.82
2019-02-11T19:36:38.891Z,75.89
2019-02-11T19:41:44.094Z,75.22
2019-02-11T19:46:49.289Z,75.29
2019-02-11T19:51:54.470Z,76.06
2019-02-11T19:57:00.764Z,75.41
2019-02-11T20:02:06.270Z,74.98
2019-02-11T20:07:11.466Z,76.02
2019-02-11T20:12:16.652Z,75.59
2019-02-11T20:17:22.733Z,76.00
2019-02-11T20:22:27.919Z,77.78
2019-02-11T20:27:33.110Z,78.77
2019-02-11T20:32:38.425Z,77.23
2019-02-11T20:37:43.634Z,77.48
2019-02-11T20:42:50.437Z,78.77
2019-02-11T20:47:55.862Z,76.97
2019-02-11T20:53:01.074Z,76.47
2019-02-11T20:58:06.779Z,76.04
2019-02-11T21:03:12.684Z,74.39
2019-02-11T21:08:18.103Z,74.78
2019-02-11T21:13:23.288Z,73.49
2019-02-11T21:18:28.491Z,74.69
2019-02-11T21:23:34.485Z,74.43
2019-02-11T21:28:39.722Z,75.98
2019-02-11T21:33:45.360Z,78.22
2019-02-11T21:38:50.534Z,77.61
2019-02-11T21:43:55.721Z,76.20
2019-02-11T21:49:04.145Z,75.82
2019-02-11T21:54:09.349Z,76.45
2019-02-11T21:59:16.181Z,76.73
2019-02-11T22:04:21.809Z,75.26
2019-02-11T22:09:27.090Z,75.85
2019-02-11T22:14:32.642Z,75.70
2019-02-11T22:19:38.235Z,75.94
2019-02-11T22:24:43.456Z,77.99
2019-02-11T22:29:48.745Z,75.80
2019-02-11T22:34:54.651Z,75.52
2019-02-11T22:40:01.771Z,74.35
2019-02-11T22:45:09.647Z,73.54
2019-02-11T22:50:14.929Z,74.55
2019-02-11T22:55:20.248Z,73.39
2019-02-11T23:00:47.825Z,73.43
2019-02-11T23:05:54.076Z,73.46
2019-02-11T23:10:59.392Z,72.28
2019-02-11T23:16:05.029Z,72.27
2019-02-11T23:21:10.871Z,72.58
2019-02-11T23:26:16.397Z,72.85
2019-02-11T23:31:22.078Z,72.39
2019-02-11T23:36:27.283Z,72.36
2019-02-11T23:41:32.474Z,72.66
2019-02-11T23:46:38.104Z,71.25
2019-02-11T23:51:43.306Z,72.07
2019-02-11T23:56:48.842Z,72.53
